Time,TemperatureF,DewpointF,PressureIn,WindDirection,WindDirectionDegrees,WindSpeedMPH,WindSpeedGustMPH,Humidity,HourlyPrecipIn,Conditions,Clouds,dailyrainin,SoftwareType,DateUTC
2013-02-12 00:14:00,38.8,30.0,30.10,WSW,249,1.0,5.0,70,0.00,,,0.00,weatherlink.com 1.10,2013-02-12 05:14:00,
2013-02-12 00:30:00,38.5,30.0,30.10,SW,214,4.0,4.0,71,0.00,,,0.00,weatherlink.com 1.10,2013-02-12 05:30:00,
2013-02-12 00:45:00,38.3,30.0,30.11,SW,226,4.0,4.0,71,0.00,,,0.00,weatherlink.com 1.10,2013-02-12 05:45:00,
2013-02-12 01:00:00,38.5,30.0,30.10,SSW,211,6.0,7.0,71,0.00,,,0.00,weatherlink.com 1.10,2013-02-12 06:00:00,
2013-02-12 01:15:00,38.4,30.0,30.10,SSW,212,4.0,8.0,71,0.00,,,0.00,weatherlink.com 1.10,2013-02-12 06:15:00,
2013-02-12 01:30:00,38.2,30.0,30.10,SW,224,3.0,7.0,71,0.00,,,0.00,weatherlink.com 1.10,2013-02-12 06:30:00,
2013-02-12 01:45:00,37.8,30.0,30.10,SW,226,2.0,4.0,72,0.00,,,0.00,weatherlink.com 1.10,2013-02-12 06:45:00,
2013-02-12 02:00:00,37.7,29.0,30.11,SW,228,2.0,6.0,72,0.00,,,0.00,weatherlink.com 1.10,2013-02-12 07:00:00,
2013-02-12 02:15:00,37.1,29.0,30.11,West,262,0.0,3.0,73,0.00,,,0.00,weatherlink.com 1.10,2013-02-12 07:15:00,
2013-02-12 02:30:00,36.4,29.0,30.12,West,259,0.0,2.0,74,0.00,,,0.00,weatherlink.com 1.10,2013-02-12 07:30:00,
2013-02-12 02:45:00,35.4,29.0,30.12,WSW,257,0.0,0.0,76,0.00,,,0.00,weatherlink.com 1.10,2013-02-12 07:45:00,
2013-02-12 03:00:00,34.3,28.0,30.12,SW,225,0.0,0.0,78,0.00,,,0.00,weatherlink.com 1.10,2013-02-12 08:00:00,
2013-02-12 03:15:00,33.6,28.0,30.13,WSW,239,0.0,3.0,80,0.00,,,0.00,weatherlink.com 1.10,2013-02-12 08:15:00,
2013-02-12 03:30:00,33.8,28.0,30.13,West,266,0.0,0.0,80,0.00,,,0.00,weatherlink.com 1.10,2013-02-12 08:30:00,
2013-02-12 03:45:00,33.4,28.0,30.13,SW,236,0.0,2.0,80,0.00,,,0.00,weatherlink.com 1.10,2013-02-12 08:45:00,
2013-02-12 04:00:00,33.4,28.0,30.13,SW,219,0.0,6.0,81,0.00,,,0.00,weatherlink.com 1.10,2013-02-12 09:00:00,
2013-02-12 04:15:00,33.8,28.0,30.14,SW,236,3.0,6.0,80,0.00,,,0.00,weatherlink.com 1.10,2013-02-12 09:15:00,
2013-02-12 04:30:00,34.0,28.0,30.14,SW,222,0.0,3.0,79,0.00,,,0.00,weatherlink.com 1.10,2013-02-12 09:30:00,
2013-02-12 04:45:00,33.7,28.0,30.14,WSW,250,2.0,2.0,79,0.00,,,0.00,weatherlink.com 1.10,2013-02-12 09:45:00,
2013-02-12 05:00:00,33.4,28.0,30.14,SW,224,0.0,2.0,80,0.00,,,0.00,weatherlink.com 1.10,2013-02-12 10:00:00,
2013-02-12 05:15:00,33.2,28.0,30.15,SW,226,0.0,1.0,80,0.00,,,0.00,weatherlink.com 1.10,2013-02-12 10:15:00,
2013-02-12 05:30:00,33.2,28.0,30.15,SW,217,1.0,4.0,80,0.00,,,0.00,weatherlink.com 1.10,2013-02-12 10:30:00,
2013-02-12 05:45:00,32.9,27.0,30.15,WNW,283,0.0,2.0,79,0.00,,,0.00,weatherlink.com 1.10,2013-02-12 10:45:00,
2013-02-12 06:00:00,32.7,27.0,30.15,WSW,248,1.0,3.0,80,0.00,,,0.00,weatherlink.com 1.10,2013-02-12 11:00:00,
2013-02-12 06:15:00,32.3,27.0,30.16,SW,217,2.0,3.0,81,0.00,,,0.00,weatherlink.com 1.10,2013-02-12 11:15:00,
2013-02-12 06:30:00,31.9,27.0,30.16,West,259,1.0,4.0,81,0.00,,,0.00,weatherlink.com 1.10,2013-02-12 11:30:00,
2013-02-12 06:45:00,31.6,26.0,30.16,WSW,240,0.0,1.0,81,0.00,,,0.00,weatherlink.com 1.10,2013-02-12 11:45:00,
2013-02-12 07:00:00,30.9,26.0,30.17,North,8,0.0,0.0,82,0.00,,,0.00,weatherlink.com 1.10,2013-02-12 12:00:00,
2013-02-12 07:16:00,29.8,26.0,30.18,NW,316,0.0,1.0,84,0.00,,,0.00,weatherlink.com 1.10,2013-02-12 12:16:00,
2013-02-12 07:31:00,29.0,25.0,30.18,NW,316,0.0,0.0,86,0.00,,,0.00,weatherlink.com 1.10,2013-02-12 12:31:00,
2013-02-12 07:46:00,28.9,26.0,30.18,NW,316,0.0,0.0,87,0.00,,,0.00,weatherlink.com 1.10,2013-02-12 12:46:00,
2013-02-12 08:01:00,29.7,26.0,30.18,NW,318,0.0,0.0,87,0.00,,,0.00,weatherlink.com 1.10,2013-02-12 13:01:00,
2013-02-12 08:16:00,31.1,27.0,30.18,NW,316,0.0,1.0,86,0.00,,,0.00,weatherlink.com 1.10,2013-02-12 13:16:00,
2013-02-12 08:31:00,31.6,27.0,30.19,SW,228,0.0,2.0,84,0.00,,,0.00,weatherlink.com 1.10,2013-02-12 13:31:00,
2013-02-12 08:46:00,32.2,28.0,30.19,SSE,150,0.0,2.0,84,0.00,,,0.00,weatherlink.com 1.10,2013-02-12 13:46:00,
2013-02-12 09:01:00,33.1,28.0,30.19,NNW,329,1.0,2.0,82,0.00,,,0.00,weatherlink.com 1.10,2013-02-12 14:01:00,
2013-02-12 09:16:00,34.7,29.0,30.19,SW,221,2.0,3.0,79,0.00,,,0.00,weatherlink.com 1.10,2013-02-12 14:16:00,
2013-02-12 09:31:00,35.6,29.0,30.19,WSW,245,0.0,4.0,76,0.00,,,0.00,weatherlink.com 1.10,2013-02-12 14:31:00,
2013-02-12 09:46:00,36.7,29.0,30.19,SW,224,1.0,4.0,75,0.00,,,0.00,weatherlink.com 1.10,2013-02-12 14:46:00,
2013-02-12 10:01:00,36.9,29.0,30.18,SW,219,2.0,4.0,73,0.00,,,0.00,weatherlink.com 1.10,2013-02-12 15:01:00,
2013-02-12 10:16:00,37.8,29.0,30.18,SW,226,3.0,5.0,71,0.00,,,0.00,weatherlink.com 1.10,2013-02-12 15:16:00,
2013-02-12 10:31:00,38.4,29.0,30.18,SSE,155,0.0,3.0,69,0.00,,,0.00,weatherlink.com 1.10,2013-02-12 15:31:00,
2013-02-12 10:46:00,38.5,29.0,30.17,SE,131,0.0,4.0,68,0.00,,,0.00,weatherlink.com 1.10,2013-02-12 15:46:00,
2013-02-12 11:01:00,39.3,28.0,30.18,WSW,242,0.0,6.0,65,0.00,,,0.00,weatherlink.com 1.10,2013-02-12 16:01:00,
2013-02-12 11:16:00,39.8,28.0,30.17,SSW,199,1.0,7.0,63,0.00,,,0.00,weatherlink.com 1.10,2013-02-12 16:16:00,
2013-02-12 11:31:00,41.1,28.0,30.17,SW,218,1.0,4.0,61,0.00,,,0.00,weatherlink.com 1.10,2013-02-12 16:31:00,
2013-02-12 11:46:00,42.4,28.0,30.16,SSW,195,1.0,3.0,57,0.00,,,0.00,weatherlink.com 1.10,2013-02-12 16:46:00,
2013-02-12 12:01:00,43.4,28.0,30.16,West,273,1.0,6.0,56,0.00,,,0.00,weatherlink.com 1.10,2013-02-12 17:01:00,
2013-02-12 12:16:00,44.2,27.0,30.14,West,260,1.0,5.0,52,0.00,,,0.00,weatherlink.com 1.10,2013-02-12 17:16:00,
2013-02-12 12:31:00,45.1,30.0,30.10,NW,326,6.0,10.0,55,0.00,,,0.00,weatherlink.com 1.10,2013-02-12 17:31:00,
2013-02-12 12:46:00,44.8,27.0,30.10,NNW,335,3.0,4.0,49,0.00,,,0.00,weatherlink.com 1.10,2013-02-12 17:46:00,
2013-02-12 13:01:00,45.6,28.0,30.08,SE,128,0.0,5.0,50,0.00,,,0.00,weatherlink.com 1.10,2013-02-12 18:01:00,
2013-02-12 13:16:00,46.3,27.0,30.07,ESE,121,2.0,5.0,48,0.00,,,0.00,weatherlink.com 1.10,2013-02-12 18:16:00,
2013-02-12 13:31:00,47.0,29.0,30.10,SSW,200,5.0,6.0,50,0.00,,,0.00,weatherlink.com 1.10,2013-02-12 18:31:00,
2013-02-12 13:46:00,47.2,29.0,30.10,SW,219,5.0,9.0,50,0.00,,,0.00,weatherlink.com 1.10,2013-02-12 18:46:00,
2013-02-12 14:01:00,47.5,27.0,30.10,SW,231,2.0,6.0,45,0.00,,,0.00,weatherlink.com 1.10,2013-02-12 19:01:00,
2013-02-12 14:16:00,47.9,28.0,30.10,SW,228,1.0,8.0,46,0.00,,,0.00,weatherlink.com 1.10,2013-02-12 19:16:00,
2013-02-12 14:31:00,48.1,29.0,30.10,SW,227,4.0,10.0,47,0.00,,,0.00,weatherlink.com 1.10,2013-02-12 19:31:00,
2013-02-12 14:46:00,48.7,29.0,30.09,SW,231,9.0,11.0,46,0.00,,,0.00,weatherlink.com 1.10,2013-02-12 19:46:00,
2013-02-12 15:01:00,48.8,28.0,30.07,SW,214,3.0,10.0,44,0.00,,,0.00,weatherlink.com 1.10,2013-02-12 20:01:00,
2013-02-12 15:17:00,49.4,26.0,30.07,SW,231,3.0,9.0,41,0.00,,,0.00,weatherlink.com 1.10,2013-02-12 20:17:00,
2013-02-12 15:31:00,49.4,26.0,30.07,SW,218,6.0,11.0,40,0.00,,,0.00,weatherlink.com 1.10,2013-02-12 20:31:00,
2013-02-12 15:47:00,50.0,26.0,30.07,SW,226,3.0,10.0,39,0.00,,,0.00,weatherlink.com 1.10,2013-02-12 20:47:00,
2013-02-12 16:02:00,50.8,28.0,30.07,SW,225,6.0,10.0,41,0.00,,,0.00,weatherlink.com 1.10,2013-02-12 21:02:00,
2013-02-12 16:17:00,50.7,28.0,30.07,WSW,242,6.0,8.0,41,0.00,,,0.00,weatherlink.com 1.10,2013-02-12 21:17:00,
2013-02-12 16:32:00,49.7,28.0,30.06,SW,236,7.0,9.0,43,0.00,,,0.00,weatherlink.com 1.10,2013-02-12 21:32:00,
2013-02-12 16:47:00,49.7,28.0,30.05,SW,232,3.0,7.0,44,0.00,,,0.00,weatherlink.com 1.10,2013-02-12 21:47:00,
2013-02-12 17:02:00,49.3,27.0,30.04,SW,228,5.0,7.0,43,0.00,,,0.00,weatherlink.com 1.10,2013-02-12 22:02:00,
2013-02-12 17:17:00,49.4,28.0,30.03,SSW,193,1.0,6.0,44,0.00,,,0.00,weatherlink.com 1.10,2013-02-12 22:17:00,
2013-02-12 17:32:00,49.2,27.0,30.02,SW,217,2.0,6.0,42,0.00,,,0.00,weatherlink.com 1.10,2013-02-12 22:32:00,
2013-02-12 17:47:00,48.5,26.0,30.02,SW,217,3.0,6.0,42,0.00,,,0.00,weatherlink.com 1.10,2013-02-12 22:47:00,
2013-02-12 18:02:00,47.6,25.0,30.01,SW,235,1.0,7.0,42,0.00,,,0.00,weatherlink.com 1.10,2013-02-12 23:02:00,
2013-02-12 18:17:00,46.8,25.0,30.01,SW,235,1.0,2.0,43,0.00,,,0.00,weatherlink.com 1.10,2013-02-12 23:17:00,
2013-02-12 18:32:00,45.6,25.0,30.01,WSW,240,0.0,1.0,44,0.00,,,0.00,weatherlink.com 1.10,2013-02-12 23:32:00,
2013-02-12 18:47:00,44.4,25.0,30.01,WSW,240,0.0,0.0,47,0.00,,,0.00,weatherlink.com 1.10,2013-02-12 23:47:00,
2013-02-12 19:02:00,43.9,26.0,30.01,WNW,283,1.0,1.0,49,0.00,,,0.00,weatherlink.com 1.10,2013-02-13 00:02:00,
2013-02-12 19:17:00,42.8,25.0,30.01,WNW,283,0.0,0.0,50,0.00,,,0.00,weatherlink.com 1.10,2013-02-13 00:17:00,
2013-02-12 19:32:00,41.6,25.0,30.01,WSW,255,0.0,1.0,53,0.00,,,0.00,weatherlink.com 1.10,2013-02-13 00:32:00,
2013-02-12 19:47:00,40.4,26.0,30.01,WSW,255,0.0,0.0,57,0.00,,,0.00,weatherlink.com 1.10,2013-02-13 00:47:00,
2013-02-12 20:02:00,40.0,25.0,30.00,West,267,0.0,0.0,56,0.00,,,0.00,weatherlink.com 1.10,2013-02-13 01:02:00,
2013-02-12 20:17:00,40.4,25.0,30.00,West,267,0.0,0.0,55,0.00,,,0.00,weatherlink.com 1.10,2013-02-13 01:17:00,
2013-02-12 20:32:00,41.3,26.0,29.99,West,267,0.0,0.0,55,0.00,,,0.00,weatherlink.com 1.10,2013-02-13 01:32:00,
2013-02-12 20:47:00,39.9,26.0,29.99,West,262,0.0,0.0,59,0.00,,,0.00,weatherlink.com 1.10,2013-02-13 01:47:00,
2013-02-12 21:02:00,39.0,26.0,29.99,West,264,0.0,0.0,59,0.00,,,0.00,weatherlink.com 1.10,2013-02-13 02:02:00,
2013-02-12 21:17:00,38.3,26.0,29.99,West,262,0.0,0.0,62,0.00,,,0.00,weatherlink.com 1.10,2013-02-13 02:17:00,
2013-02-12 21:32:00,38.7,27.0,29.98,West,262,0.0,0.0,62,0.00,,,0.00,weatherlink.com 1.10,2013-02-13 02:32:00,
2013-02-12 21:47:00,38.9,27.0,29.98,West,262,0.0,0.0,63,0.00,,,0.00,weatherlink.com 1.10,2013-02-13 02:47:00,
2013-02-12 22:02:00,38.4,27.0,29.98,West,262,0.0,0.0,64,0.00,,,0.00,weatherlink.com 1.10,2013-02-13 03:02:00,
2013-02-12 22:17:00,38.7,26.0,29.97,NW,308,0.0,2.0,60,0.00,,,0.00,weatherlink.com 1.10,2013-02-13 03:17:00,
2013-02-12 22:32:00,40.1,27.0,29.96,NW,307,0.0,1.0,61,0.00,,,0.00,weatherlink.com 1.10,2013-02-13 03:32:00,
2013-02-12 22:47:00,38.9,28.0,29.97,WSW,245,0.0,0.0,66,0.00,,,0.00,weatherlink.com 1.10,2013-02-13 03:47:00,
2013-02-12 23:02:00,38.0,27.0,29.98,WSW,244,0.0,0.0,65,0.00,,,0.00,weatherlink.com 1.10,2013-02-13 04:02:00,
2013-02-12 23:17:00,38.0,27.0,29.98,NW,325,0.0,2.0,64,0.00,,,0.00,weatherlink.com 1.10,2013-02-13 04:17:00,
2013-02-12 23:32:00,40.4,28.0,29.96,NNW,347,2.0,3.0,61,0.00,,,0.00,weatherlink.com 1.10,2013-02-13 04:32:00,
2013-02-12 23:47:00,41.0,27.0,29.96,WNW,293,1.0,4.0,59,0.00,,,0.00,weatherlink.com 1.10,2013-02-13 04:47:00,